Time;durP1;ratioP1;P1;durP2;ratioP2;P2;SDS_P1;SDS_P2;PMS_P1;PMS_P2;Temp;Humidity;BMP_temperature;BMP_pressure;BME280_temperature;BME280_humidity;BME280_pressure;Samples;Min_cycle;Max_cycle;Signal;HPM_P1;HPM_P2
2023/12/01 00:01:51;;;;;;;33.78;15.20;;;-0.80;99.90;;;;;;5092558;28;20036;-81
2023/12/01 00:04:17;;;;;;;36.92;14.68;;;-0.70;99.90;;;;;;5092238;28;20440;-81
2023/12/01 00:06:42;;;;;;;39.42;15.55;;;-0.70;99.90;;;;;;5092226;28;20040;-81
2023/12/01 00:09:08;;;;;;;44.33;16.55;;;-0.70;99.90;;;;;;5095442;28;20123;-81
2023/12/01 00:11:33;;;;;;;42.72;16.33;;;-0.70;99.90;;;;;;5096298;28;20036;-81
2023/12/01 00:13:59;;;;;;;45.42;16.48;;;-0.70;99.90;;;;;;5096494;28;20047;-81
2023/12/01 00:16:25;;;;;;;45.08;16.15;;;-0.60;99.90;;;;;;5096280;28;20047;-81
2023/12/01 00:18:50;;;;;;;45.08;16.08;;;-0.60;99.90;;;;;;5079157;28;20048;-81
2023/12/01 00:21:16;;;;;;;44.00;16.08;;;-0.60;99.90;;;;;;5096138;28;20097;-81
2023/12/01 00:23:42;;;;;;;42.85;17.13;;;-0.60;99.90;;;;;;5096501;28;20063;-81
2023/12/01 00:26:07;;;;;;;43.75;16.50;;;-0.60;99.90;;;;;;5096401;28;20382;-81
2023/12/01 00:28:33;;;;;;;43.88;16.17;;;-0.60;99.90;;;;;;5095949;28;20071;-81
2023/12/01 00:30:58;;;;;;;45.38;16.98;;;-0.60;99.90;;;;;;5095978;28;20040;-81
2023/12/01 00:33:25;;;;;;;42.17;17.73;;;-0.60;99.90;;;;;;5095934;28;20386;-81
2023/12/01 00:35:51;;;;;;;44.53;17.00;;;-0.70;99.90;;;;;;5095814;28;20443;-81
2023/12/01 00:38:17;;;;;;;48.28;17.65;;;-0.60;99.90;;;;;;5096024;28;20173;-81
2023/12/01 00:40:42;;;;;;;53.65;18.77;;;-0.60;99.90;;;;;;5096052;28;20066;-81
2023/12/01 00:43:09;;;;;;;48.45;17.60;;;-0.70;99.90;;;;;;5095922;28;20471;-81
2023/12/01 00:45:35;;;;;;;50.38;19.23;;;-0.70;99.90;;;;;;5097191;28;20112;-81
2023/12/01 00:48:03;;;;;;;59.45;19.52;;;-0.70;99.90;;;;;;5078771;28;20097;-80
2023/12/01 00:50:29;;;;;;;48.33;17.67;;;-0.80;99.90;;;;;;5078723;28;20052;-81
2023/12/01 00:52:54;;;;;;;47.20;18.45;;;-0.70;99.90;;;;;;5095687;28;20131;-81
2023/12/01 00:55:20;;;;;;;58.55;18.88;;;-0.80;99.90;;;;;;5095610;28;20394;-81
2023/12/01 00:57:46;;;;;;;48.17;18.33;;;-0.80;99.90;;;;;;5095467;28;20036;-81
2023/12/01 01:00:11;;;;;;;48.13;18.70;;;-0.90;99.90;;;;;;5095062;28;20040;-81
2023/12/01 01:02:37;;;;;;;50.42;17.95;;;-0.90;99.90;;;;;;5095701;28;20118;-81
2023/12/01 01:05:03;;;;;;;55.28;18.58;;;-0.90;99.90;;;;;;5095393;28;20044;-81
2023/12/01 01:07:29;;;;;;;52.83;18.15;;;-0.80;99.90;;;;;;5095026;28;20082;-80
2023/12/01 01:09:54;;;;;;;56.15;19.55;;;-0.80;99.90;;;;;;5095330;28;20048;-80
2023/12/01 01:12:20;;;;;;;54.92;18.50;;;-0.80;99.90;;;;;;5096621;28;20127;-80
2023/12/01 01:14:46;;;;;;;55.33;18.92;;;-0.80;99.90;;;;;;5095072;28;20043;-80
2023/12/01 01:17:12;;;;;;;47.33;18.52;;;-0.80;99.90;;;;;;5095260;28;20055;-80
2023/12/01 01:19:37;;;;;;;42.17;17.40;;;-0.80;99.90;;;;;;5094688;28;20070;-80
2023/12/01 01:22:03;;;;;;;38.80;16.00;;;-0.80;99.90;;;;;;5094865;28;20036;-80
2023/12/01 01:24:29;;;;;;;38.15;14.23;;;-0.90;99.90;;;;;;5094980;28;20083;-80
2023/12/01 01:26:54;;;;;;;40.17;15.98;;;-0.90;99.90;;;;;;5078246;28;20040;-80
2023/12/01 01:29:20;;;;;;;37.55;15.48;;;-0.90;99.90;;;;;;5094784;28;20121;-80
2023/12/01 01:31:46;;;;;;;35.17;14.77;;;-0.90;99.90;;;;;;5094778;28;20055;-80
2023/12/01 01:34:11;;;;;;;34.03;14.60;;;-0.90;99.90;;;;;;5094829;28;20043;-80
2023/12/01 01:36:37;;;;;;;27.65;12.75;;;-0.90;99.90;;;;;;5095008;28;20063;-80
2023/12/01 01:39:03;;;;;;;29.52;13.15;;;-1.00;99.90;;;;;;5094779;28;20403;-80
2023/12/01 01:41:29;;;;;;;35.50;15.63;;;-1.00;99.90;;;;;;5094455;28;20074;-80
2023/12/01 01:43:54;;;;;;;35.13;16.23;;;-1.10;99.90;;;;;;5094429;28;20048;-80
2023/12/01 01:46:20;;;;;;;32.72;14.45;;;-1.10;99.90;;;;;;5094883;28;20083;-80
2023/12/01 01:48:49;;;;;;;36.88;14.73;;;-1.10;99.90;;;;;;5094442;28;20479;-79
2023/12/01 01:51:15;;;;;;;27.35;12.60;;;-1.10;99.90;;;;;;5094504;28;20109;-80
2023/12/01 01:53:41;;;;;;;33.45;13.95;;;-1.20;99.90;;;;;;5094368;28;20067;-80
2023/12/01 01:56:08;;;;;;;32.08;14.77;;;-1.30;99.90;;;;;;5094231;28;20051;-80
2023/12/01 01:58:34;;;;;;;32.60;14.60;;;-1.30;99.90;;;;;;5094226;28;20087;-80
2023/12/01 02:01:00;;;;;;;38.25;15.40;;;-1.30;99.90;;;;;;5094098;28;20063;-80
2023/12/01 02:03:25;;;;;;;33.95;13.35;;;-1.30;99.90;;;;;;5094412;28;20051;-80
2023/12/01 02:05:51;;;;;;;38.13;15.70;;;-1.40;99.90;;;;;;5094169;28;20047;-79
2023/12/01 02:08:29;;;;;;;36.38;15.15;;;-1.40;99.90;;;;;;5077046;28;20080;-80
2023/12/01 02:10:57;;;;;;;33.22;14.02;;;-1.40;99.90;;;;;;5093903;28;20479;-80
2023/12/01 02:13:24;;;;;;;35.50;14.68;;;-1.40;99.90;;;;;;5093835;28;20372;-80
2023/12/01 02:15:50;;;;;;;36.53;14.82;;;-1.40;99.90;;;;;;5094196;28;20054;-79
2023/12/01 02:18:22;;;;;;;33.97;15.13;;;-1.50;99.90;;;;;;5094073;28;20075;-80
2023/12/01 02:20:52;;;;;;;33.50;14.43;;;-1.50;99.90;;;;;;5095263;28;20125;-79
2023/12/01 02:23:18;;;;;;;32.55;13.30;;;-1.50;99.90;;;;;;5093913;28;20327;-79
2023/12/01 02:25:44;;;;;;;34.50;13.95;;;-1.60;99.90;;;;;;5093724;28;20044;-79
2023/12/01 02:28:13;;;;;;;35.60;13.65;;;-1.60;99.90;;;;;;5093956;28;20035;-79
2023/12/01 02:30:39;;;;;;;37.70;14.95;;;-1.60;99.90;;;;;;5094234;28;20132;-79
2023/12/01 02:33:05;;;;;;;33.83;14.15;;;-1.60;99.90;;;;;;5093784;28;20054;-79
2023/12/01 02:35:31;;;;;;;36.40;14.60;;;-1.70;99.90;;;;;;5093558;28;20131;-79
2023/12/01 02:37:59;;;;;;;34.00;14.35;;;-1.70;99.90;;;;;;5093631;28;20052;-79
2023/12/01 02:40:27;;;;;;;31.80;15.30;;;-1.80;99.90;;;;;;5093251;28;20039;-79
2023/12/01 02:42:53;;;;;;;36.10;13.80;;;-1.80;99.90;;;;;;5076574;28;20075;-79
2023/12/01 02:45:20;;;;;;;37.20;14.40;;;-1.80;99.90;;;;;;5093055;28;20528;-79
2023/12/01 02:47:49;;;;;;;40.40;16.20;;;-1.80;99.90;;;;;;5093738;28;20044;-79
2023/12/01 02:50:17;;;;;;;41.17;15.43;;;-1.80;99.90;;;;;;5093039;28;20048;-79
2023/12/01 02:52:44;;;;;;;38.38;15.23;;;-1.90;99.90;;;;;;5076152;28;20082;-79
2023/12/01 02:55:11;;;;;;;30.55;13.85;;;-1.90;99.90;;;;;;5093375;28;20044;-79
2023/12/01 02:57:40;;;;;;;32.08;14.10;;;-1.90;99.90;;;;;;5093072;28;20097;-79
2023/12/01 03:00:13;;;;;;;39.20;15.40;;;-2.00;99.90;;;;;;5093154;28;20047;-79
2023/12/01 03:02:43;;;;;;;38.17;15.95;;;-2.00;99.90;;;;;;5076327;28;20093;-79
2023/12/01 03:05:09;;;;;;;40.20;14.98;;;-2.00;99.90;;;;;;5093037;28;20127;-79
2023/12/01 03:07:36;;;;;;;38.72;14.07;;;-2.10;99.90;;;;;;5093208;28;20493;-79
2023/12/01 03:10:02;;;;;;;39.47;15.23;;;-2.10;99.90;;;;;;5093100;28;20490;-79
2023/12/01 03:12:28;;;;;;;35.03;14.20;;;-2.20;99.90;;;;;;5092975;28;20399;-79
2023/12/01 03:14:54;;;;;;;42.95;14.98;;;-2.20;99.90;;;;;;5076384;28;20487;-79
2023/12/01 03:17:23;;;;;;;43.45;16.63;;;-2.20;99.90;;;;;;5092920;28;20395;-79
2023/12/01 03:19:50;;;;;;;40.38;15.13;;;-2.20;99.90;;;;;;5092702;28;20079;-79
2023/12/01 03:22:16;;;;;;;42.65;16.52;;;-2.20;99.90;;;;;;5094116;28;20052;-79
2023/12/01 03:24:43;;;;;;;39.72;15.07;;;-2.30;99.90;;;;;;5092630;28;20047;-79
2023/12/01 03:27:08;;;;;;;42.17;16.67;;;-2.30;99.90;;;;;;5093051;28;20086;-79
2023/12/01 03:29:35;;;;;;;42.38;16.60;;;-2.30;99.90;;;;;;5092762;28;20459;-79
2023/12/01 03:32:01;;;;;;;42.65;16.30;;;-2.30;99.90;;;;;;5092575;28;20094;-79
2023/12/01 03:34:26;;;;;;;41.35;16.73;;;-2.30;99.90;;;;;;5092871;28;20051;-79
2023/12/01 03:36:52;;;;;;;42.42;16.60;;;-2.30;99.90;;;;;;5092682;28;20449;-79
2023/12/01 03:39:18;;;;;;;38.25;14.55;;;-2.40;99.90;;;;;;5092351;28;20052;-79
2023/12/01 03:41:50;;;;;;;44.80;15.43;;;-2.30;99.90;;;;;;5093919;28;20047;-79
2023/12/01 03:44:15;;;;;;;39.83;14.25;;;-2.40;99.90;;;;;;5092630;28;20040;-79
2023/12/01 03:46:41;;;;;;;45.53;16.45;;;-2.40;99.90;;;;;;5092374;28;20044;-79
2023/12/01 03:49:08;;;;;;;43.35;15.80;;;-2.40;99.90;;;;;;5092318;28;20055;-79
2023/12/01 03:51:35;;;;;;;39.83;14.60;;;-2.40;99.90;;;;;;5092846;28;20525;-79
2023/12/01 03:54:01;;;;;;;44.88;15.98;;;-2.40;99.90;;;;;;5092575;28;20044;-79
2023/12/01 03:56:26;;;;;;;42.72;16.33;;;-2.40;99.90;;;;;;5092621;28;20054;-79
2023/12/01 03:58:54;;;;;;;39.78;15.20;;;-2.50;99.90;;;;;;5075409;28;20772;-79
2023/12/01 04:01:20;;;;;;;39.05;14.75;;;-2.50;99.90;;;;;;5092245;28;20483;-79
2023/12/01 04:03:46;;;;;;;39.70;14.88;;;-2.50;99.90;;;;;;5092219;28;20127;-79
2023/12/01 04:06:12;;;;;;;39.92;14.95;;;-2.50;99.90;;;;;;5092529;28;20131;-79
2023/12/01 04:08:37;;;;;;;37.58;14.25;;;-2.60;99.90;;;;;;5092062;28;20048;-79
2023/12/01 04:11:04;;;;;;;38.88;15.45;;;-2.60;99.90;;;;;;5092436;28;20048;-79
2023/12/01 04:13:29;;;;;;;37.55;14.48;;;-2.70;99.90;;;;;;5092332;28;20119;-79
2023/12/01 04:15:55;;;;;;;35.25;13.73;;;-2.80;99.90;;;;;;5092101;28;20123;-79
2023/12/01 04:18:21;;;;;;;40.80;14.85;;;-2.70;99.90;;;;;;5092102;28;20048;-79
2023/12/01 04:20:47;;;;;;;38.28;14.95;;;-2.70;99.90;;;;;;5092107;28;20036;-79
2023/12/01 04:23:14;;;;;;;36.17;13.02;;;-2.70;99.90;;;;;;5093504;28;20093;-79
2023/12/01 04:25:48;;;;;;;36.60;14.77;;;-2.80;99.90;;;;;;5093545;28;20036;-79
2023/12/01 04:28:14;;;;;;;34.55;13.73;;;-2.80;99.90;;;;;;5092233;28;20051;-79
2023/12/01 04:30:41;;;;;;;37.67;15.30;;;-2.90;99.90;;;;;;5092342;28;20044;-79
2023/12/01 04:33:07;;;;;;;36.22;13.95;;;-2.90;99.90;;;;;;5075440;28;20044;-79
2023/12/01 04:35:35;;;;;;;41.88;15.65;;;-2.90;99.90;;;;;;5092430;28;20067;-79
2023/12/01 04:38:05;;;;;;;35.35;15.10;;;-3.00;99.90;;;;;;5092127;28;20077;-79
2023/12/01 04:40:30;;;;;;;42.63;15.07;;;-3.00;99.90;;;;;;5093614;28;20119;-79
2023/12/01 04:42:58;;;;;;;41.35;15.32;;;-3.10;99.90;;;;;;5075396;28;20484;-79
2023/12/01 04:45:32;;;;;;;42.13;15.93;;;-3.00;99.90;;;;;;5091894;28;20494;-79
2023/12/01 04:47:58;;;;;;;41.65;16.17;;;-2.90;99.90;;;;;;5092235;28;20123;-79
2023/12/01 04:50:29;;;;;;;35.85;13.82;;;-3.00;99.90;;;;;;5091705;28;20135;-79
2023/12/01 04:52:56;;;;;;;33.88;13.30;;;-2.90;99.90;;;;;;5092093;28;20063;-79
2023/12/01 04:55:29;;;;;;;36.45;13.43;;;-3.10;99.90;;;;;;5094958;28;20051;-79
2023/12/01 04:57:56;;;;;;;38.53;14.50;;;-3.10;99.90;;;;;;5095510;28;20040;-79
2023/12/01 05:00:29;;;;;;;46.05;16.63;;;-3.10;99.90;;;;;;5095833;28;20044;-79
2023/12/01 05:03:06;;;;;;;37.88;14.25;;;-3.20;99.90;;;;;;5095216;28;20084;-79
2023/12/01 05:05:37;;;;;;;35.75;13.52;;;-3.10;99.90;;;;;;5078423;28;20101;-79
2023/12/01 05:08:05;;;;;;;44.33;16.23;;;-3.20;99.90;;;;;;5095648;28;20051;-79
2023/12/01 05:10:32;;;;;;;42.47;14.95;;;-3.30;99.90;;;;;;5095368;28;20044;-79
2023/12/01 05:13:00;;;;;;;42.13;16.40;;;-3.30;99.90;;;;;;5095631;28;20071;-79
2023/12/01 05:15:28;;;;;;;39.50;15.30;;;-3.30;99.90;;;;;;5095399;28;20052;-79
2023/12/01 05:17:57;;;;;;;39.22;16.42;;;-3.30;99.90;;;;;;5095427;28;20132;-79
2023/12/01 05:20:25;;;;;;;43.78;16.92;;;-3.30;99.90;;;;;;5095467;28;20048;-79
2023/12/01 05:22:52;;;;;;;39.45;14.55;;;-3.30;99.90;;;;;;5095100;28;20051;-79
2023/12/01 05:25:19;;;;;;;33.03;13.98;;;-3.30;99.90;;;;;;5096303;28;20455;-79
2023/12/01 05:27:47;;;;;;;36.38;13.88;;;-3.30;99.90;;;;;;5094961;28;20077;-79
2023/12/01 05:30:18;;;;;;;39.60;14.68;;;-3.40;99.90;;;;;;5078220;28;20111;-79
2023/12/01 05:32:46;;;;;;;44.28;14.27;;;-3.40;99.90;;;;;;5095349;28;20478;-80
2023/12/01 05:35:12;;;;;;;35.83;13.90;;;-3.50;99.90;;;;;;5094971;28;20032;-80
2023/12/01 05:37:46;;;;;;;35.33;13.48;;;-3.50;99.90;;;;;;5094965;28;20060;-79
2023/12/01 05:40:14;;;;;;;42.97;15.65;;;-3.50;99.90;;;;;;5095067;28;20127;-80
2023/12/01 05:42:43;;;;;;;33.65;13.05;;;-3.50;99.90;;;;;;5094733;28;20048;-80
2023/12/01 05:45:12;;;;;;;34.45;13.50;;;-3.60;99.90;;;;;;5096021;28;20051;-80
2023/12/01 05:47:45;;;;;;;36.92;13.95;;;-3.50;99.90;;;;;;5094267;28;20471;-80
2023/12/01 05:50:12;;;;;;;36.67;14.82;;;-3.60;99.90;;;;;;5094439;28;20487;-80
2023/12/01 05:52:40;;;;;;;40.88;13.77;;;-3.70;99.90;;;;;;5094475;28;20050;-80
2023/12/01 05:55:10;;;;;;;35.47;13.80;;;-3.70;99.90;;;;;;5094456;28;20395;-80
2023/12/01 05:57:39;;;;;;;40.97;14.13;;;-3.70;99.90;;;;;;5094768;28;20067;-79
2023/12/01 06:00:05;;;;;;;34.72;13.23;;;-3.70;99.90;;;;;;5094369;28;20047;-80
2023/12/01 06:02:33;;;;;;;35.78;14.32;;;-3.70;99.90;;;;;;5094468;28;20048;-79
2023/12/01 06:04:59;;;;;;;35.13;12.60;;;-3.60;99.90;;;;;;5095135;28;20051;-79
2023/12/01 06:07:25;;;;;;;33.08;11.88;;;-3.60;99.90;;;;;;5093961;28;20178;-80
2023/12/01 06:09:50;;;;;;;34.80;12.70;;;-3.60;99.90;;;;;;5094178;28;20051;-80
2023/12/01 06:12:16;;;;;;;36.30;12.45;;;-3.60;99.90;;;;;;5094287;28;20040;-80
2023/12/01 06:14:41;;;;;;;31.60;11.55;;;-3.70;99.90;;;;;;5093958;28;20126;-80
2023/12/01 06:17:07;;;;;;;29.77;11.20;;;-3.70;99.90;;;;;;5094329;28;20056;-81
2023/12/01 06:19:33;;;;;;;34.17;12.10;;;-3.70;99.90;;;;;;5093930;28;20157;-80
2023/12/01 06:21:58;;;;;;;31.52;10.95;;;-3.70;99.90;;;;;;5095441;28;20040;-79
2023/12/01 06:24:25;;;;;;;32.35;12.25;;;-3.80;99.90;;;;;;5095181;28;20044;-80
2023/12/01 06:26:54;;;;;;;36.80;12.23;;;-3.90;99.90;;;;;;5095252;28;20129;-80
2023/12/01 06:29:21;;;;;;;34.22;10.95;;;-3.90;99.90;;;;;;5093969;28;20487;-80
2023/12/01 06:31:46;;;;;;;38.17;14.48;;;-3.90;99.90;;;;;;5076900;28;20101;-80
2023/12/01 06:34:12;;;;;;;39.13;14.13;;;-3.90;99.90;;;;;;5094017;28;20483;-80
2023/12/01 06:36:37;;;;;;;38.17;14.80;;;-3.90;99.90;;;;;;5093709;28;20123;-80
2023/12/01 06:39:10;;;;;;;39.10;12.85;;;-3.90;99.90;;;;;;5094993;28;20039;-80
2023/12/01 06:41:37;;;;;;;35.92;12.82;;;-3.90;99.90;;;;;;5092943;28;20093;-80
2023/12/01 06:44:04;;;;;;;36.40;13.10;;;-3.90;99.90;;;;;;5093711;28;20139;-80
2023/12/01 06:46:29;;;;;;;36.95;14.57;;;-4.00;99.90;;;;;;5093459;28;20044;-80
2023/12/01 06:48:58;;;;;;;39.33;13.40;;;-4.00;99.90;;;;;;5093474;28;20093;-80
2023/12/01 06:51:24;;;;;;;37.40;16.45;;;-4.00;99.90;;;;;;5093693;28;20060;-80
2023/12/01 06:53:50;;;;;;;43.72;17.05;;;-4.00;99.90;;;;;;5094459;28;20119;-80
2023/12/01 06:56:15;;;;;;;39.13;16.13;;;-3.90;99.90;;;;;;5093295;28;20044;-80
2023/12/01 06:58:41;;;;;;;39.38;15.65;;;-4.00;99.90;;;;;;5093189;28;20078;-80
2023/12/01 07:01:07;;;;;;;49.70;19.00;;;-3.90;99.90;;;;;;5093326;28;20479;-80
2023/12/01 07:03:32;;;;;;;48.08;19.73;;;-4.00;99.90;;;;;;5093213;28;20048;-80
2023/12/01 07:05:58;;;;;;;47.90;18.20;;;-3.90;99.90;;;;;;5093459;28;20123;-81
2023/12/01 07:08:23;;;;;;;46.92;19.33;;;-3.90;99.90;;;;;;5093069;28;20419;-81
2023/12/01 07:10:49;;;;;;;84.50;27.80;;;-3.80;99.90;;;;;;5093205;28;20130;-81
2023/12/01 07:13:16;;;;;;;127.13;39.15;;;-3.90;99.90;;;;;;5093154;28;20373;-81
2023/12/01 07:15:41;;;;;;;100.03;37.47;;;-4.00;99.90;;;;;;5093124;28;20503;-81
2023/12/01 07:18:09;;;;;;;55.92;23.00;;;-3.90;99.90;;;;;;5075422;28;20446;-81
2023/12/01 07:20:35;;;;;;;47.55;21.77;;;-3.80;99.90;;;;;;5092668;28;20119;-81
2023/12/01 07:23:01;;;;;;;42.53;18.85;;;-3.80;99.90;;;;;;5093423;28;20066;-80
2023/12/01 07:25:26;;;;;;;45.35;18.38;;;-3.80;99.90;;;;;;5092826;28;20449;-81
2023/12/01 07:27:53;;;;;;;51.92;23.45;;;-3.70;99.90;;;;;;5092834;28;20039;-81
2023/12/01 07:30:19;;;;;;;53.47;17.77;;;-3.70;99.90;;;;;;5093042;28;20087;-80
2023/12/01 07:32:49;;;;;;;48.65;18.52;;;-3.60;99.90;;;;;;5075968;28;20379;-81
2023/12/01 07:35:15;;;;;;;42.83;16.85;;;-3.60;99.90;;;;;;5075164;28;20047;-82
2023/12/01 07:37:42;;;;;;;44.20;16.35;;;-3.50;99.90;;;;;;5091733;28;20097;-81
2023/12/01 07:40:09;;;;;;;39.70;15.38;;;-3.50;99.90;;;;;;5092416;28;20043;-81
2023/12/01 07:42:35;;;;;;;42.03;15.98;;;-3.40;99.90;;;;;;5085152;28;20044;-79
2023/12/01 07:45:01;;;;;;;42.70;14.15;;;-3.40;99.90;;;;;;5074362;28;20101;-81
2023/12/01 07:47:27;;;;;;;38.08;15.27;;;-3.30;99.90;;;;;;5072112;28;20048;-80
2023/12/01 07:49:54;;;;;;;46.25;16.92;;;-3.30;99.90;;;;;;5054910;28;20102;-81
2023/12/01 07:52:21;;;;;;;47.55;19.35;;;-3.20;99.90;;;;;;5071769;28;20484;-79
2023/12/01 07:54:50;;;;;;;53.85;21.20;;;-3.10;99.90;;;;;;5055304;28;20119;-80
2023/12/01 07:57:15;;;;;;;53.20;19.77;;;-3.00;99.90;;;;;;5071939;28;20051;-78
2023/12/01 07:59:41;;;;;;;51.05;19.10;;;-3.00;99.90;;;;;;5073177;28;20111;-81
2023/12/01 08:02:09;;;;;;;62.38;22.52;;;-2.90;99.90;;;;;;5055009;28;20037;-80
2023/12/01 08:04:35;;;;;;;67.10;23.17;;;-2.90;99.90;;;;;;5054912;28;20080;-81
2023/12/01 08:07:01;;;;;;;55.35;19.85;;;-2.80;99.90;;;;;;5071902;28;20046;-81
2023/12/01 08:09:31;;;;;;;51.65;17.15;;;-2.80;99.90;;;;;;5071812;28;20044;-79
2023/12/01 08:11:58;;;;;;;61.75;19.33;;;-2.70;99.90;;;;;;5054949;28;20098;-78
2023/12/01 08:14:26;;;;;;;52.33;18.60;;;-2.60;99.90;;;;;;5071797;28;20487;-80
2023/12/01 08:16:55;;;;;;;55.55;19.38;;;-2.60;99.90;;;;;;5054992;28;20045;-80
2023/12/01 08:19:21;;;;;;;60.20;19.73;;;-2.50;99.90;;;;;;5071536;28;20059;-80
2023/12/01 08:21:46;;;;;;;58.50;20.50;;;-2.50;99.90;;;;;;5071466;28;20041;-81
2023/12/01 08:24:12;;;;;;;51.58;16.67;;;-2.40;99.90;;;;;;5071737;28;20052;-81
2023/12/01 08:26:38;;;;;;;50.45;17.92;;;-2.30;99.90;;;;;;5071677;28;20139;-81
2023/12/01 08:29:04;;;;;;;54.65;18.15;;;-2.20;99.90;;;;;;5073971;28;20048;-81
2023/12/01 08:31:30;;;;;;;60.20;19.65;;;-2.10;99.90;;;;;;5075307;28;20368;-81
2023/12/01 08:33:59;;;;;;;52.05;18.92;;;-2.00;99.90;;;;;;5075189;28;20052;-79
2023/12/01 08:36:25;;;;;;;50.00;17.92;;;-2.00;99.90;;;;;;5076835;28;20075;-78
2023/12/01 08:38:51;;;;;;;56.53;19.20;;;-1.90;99.90;;;;;;5075211;28;20052;-78
2023/12/01 08:41:17;;;;;;;49.22;18.60;;;-1.90;99.90;;;;;;5076750;28;20044;-79
2023/12/01 08:43:42;;;;;;;47.45;19.25;;;-1.80;99.90;;;;;;5058752;28;20137;-78
2023/12/01 08:46:08;;;;;;;43.45;17.52;;;-1.80;99.90;;;;;;5076305;28;20439;-80
2023/12/01 08:48:36;;;;;;;46.17;18.42;;;-1.70;99.90;;;;;;5075057;28;20798;-80
2023/12/01 08:51:02;;;;;;;47.90;16.98;;;-1.70;99.90;;;;;;5074959;28;20136;-80
2023/12/01 08:53:28;;;;;;;47.22;18.95;;;-1.60;99.90;;;;;;5074965;28;20119;-79
2023/12/01 08:55:56;;;;;;;47.88;17.88;;;-1.60;99.90;;;;;;5058167;28;20109;-79
2023/12/01 08:58:22;;;;;;;43.10;18.00;;;-1.60;99.90;;;;;;5080122;28;20047;-78
2023/12/01 09:00:48;;;;;;;42.13;17.40;;;-1.50;99.90;;;;;;5069234;28;20044;-78
2023/12/01 09:03:14;;;;;;;48.83;18.75;;;-1.50;99.90;;;;;;5081858;28;20081;-78
2023/12/01 09:05:39;;;;;;;49.80;18.50;;;-1.30;99.90;;;;;;5084952;28;20143;-78
2023/12/01 09:08:05;;;;;;;46.47;18.73;;;-1.20;99.90;;;;;;5081059;28;20084;-78
2023/12/01 09:10:32;;;;;;;47.35;18.13;;;-1.20;99.90;;;;;;5077566;28;20101;-79
2023/12/01 09:12:58;;;;;;;46.05;20.23;;;-1.10;99.90;;;;;;5085434;28;20041;-79
2023/12/01 09:15:24;;;;;;;45.63;18.05;;;-1.10;99.90;;;;;;5086385;28;20475;-79
2023/12/01 09:17:51;;;;;;;47.97;18.80;;;-1.10;99.90;;;;;;5090804;28;20044;-79
2023/12/01 09:20:17;;;;;;;46.03;19.10;;;-1.00;99.90;;;;;;5074763;28;20056;-78
2023/12/01 09:22:43;;;;;;;50.03;19.88;;;-0.90;99.90;;;;;;5074417;28;20051;-79
2023/12/01 09:25:09;;;;;;;41.70;17.25;;;-0.80;99.90;;;;;;5074492;28;20046;-79
2023/12/01 09:27:35;;;;;;;45.25;18.63;;;-0.70;99.90;;;;;;5075695;28;20082;-79
2023/12/01 09:30:00;;;;;;;45.58;18.73;;;-0.60;99.90;;;;;;5057953;28;20047;-80
2023/12/01 09:32:26;;;;;;;37.20;16.73;;;-0.60;99.90;;;;;;5074247;28;20044;-80
2023/12/01 09:34:52;;;;;;;37.70;18.35;;;-0.50;99.90;;;;;;5074178;28;20126;-80
2023/12/01 09:37:18;;;;;;;37.88;17.92;;;-0.40;99.90;;;;;;5079377;28;20036;-80
2023/12/01 09:39:43;;;;;;;36.50;16.17;;;-0.30;99.90;;;;;;5087592;28;20067;-80
2023/12/01 09:42:09;;;;;;;38.58;17.50;;;-0.20;99.90;;;;;;5095439;28;20119;-79
2023/12/01 09:44:37;;;;;;;32.53;15.65;;;-0.10;99.90;;;;;;5094558;28;20426;-79
2023/12/01 09:47:04;;;;;;;38.80;16.45;;;-0.10;99.90;;;;;;5074280;28;20091;-79
2023/12/01 09:49:33;;;;;;;40.25;16.83;;;0.10;99.90;;;;;;5075074;28;20052;-79
2023/12/01 09:52:05;;;;;;;36.80;15.82;;;0.20;99.90;;;;;;5073854;28;20048;-79
2023/12/01 09:54:31;;;;;;;31.77;15.32;;;0.40;99.90;;;;;;5073828;28;20037;-80
2023/12/01 09:57:06;;;;;;;32.15;15.63;;;0.30;99.90;;;;;;5073983;28;20101;-79
2023/12/01 09:59:36;;;;;;;34.03;16.20;;;0.20;99.90;;;;;;5073905;28;20052;-80
2023/12/01 10:02:05;;;;;;;34.47;16.90;;;0.20;99.90;;;;;;5076006;28;20487;-79
2023/12/01 10:04:35;;;;;;;34.95;15.55;;;0.10;99.90;;;;;;5064991;28;20080;-80
2023/12/01 10:07:03;;;;;;;30.27;14.90;;;0.10;99.90;;;;;;5075192;28;20052;-79
2023/12/01 10:09:32;;;;;;;27.73;14.02;;;0.10;99.90;;;;;;5056777;28;20147;-80
2023/12/01 10:12:09;;;;;;;33.83;16.00;;;0.10;99.90;;;;;;5078566;28;20123;-79
2023/12/01 10:14:38;;;;;;;34.05;15.68;;;0.10;99.90;;;;;;5087963;28;20048;-79
2023/12/01 10:17:07;;;;;;;36.53;15.45;;;0.30;99.90;;;;;;5093530;28;20078;-79
2023/12/01 10:19:34;;;;;;;33.67;15.57;;;0.10;99.90;;;;;;5093502;28;20057;-79
2023/12/01 10:22:00;;;;;;;33.88;16.90;;;0.10;99.90;;;;;;5093770;28;20106;-79
2023/12/01 10:24:26;;;;;;;33.90;16.38;;;0.10;99.90;;;;;;5093472;28;20032;-80
2023/12/01 10:26:56;;;;;;;30.30;14.75;;;0.20;99.90;;;;;;5093912;28;20044;-79
2023/12/01 10:29:27;;;;;;;35.33;17.10;;;0.20;99.90;;;;;;5093602;28;20055;-79
2023/12/01 10:31:53;;;;;;;30.90;16.00;;;0.10;99.90;;;;;;5093554;28;20048;-79
2023/12/01 10:34:19;;;;;;;39.42;19.73;;;0.10;99.90;;;;;;5086733;28;20040;-80
2023/12/01 10:36:47;;;;;;;34.30;18.25;;;0.10;99.90;;;;;;5082687;28;20117;-79
2023/12/01 10:39:16;;;;;;;36.67;16.02;;;0.20;99.90;;;;;;5093106;28;20051;-79
2023/12/01 10:41:43;;;;;;;35.05;16.40;;;0.30;99.90;;;;;;5093548;28;20055;-79
2023/12/01 10:44:13;;;;;;;32.67;14.77;;;0.40;99.90;;;;;;5093020;28;20552;-79
2023/12/01 10:46:40;;;;;;;34.90;16.13;;;0.40;99.90;;;;;;5093353;28;20453;-80
2023/12/01 10:49:08;;;;;;;29.42;13.90;;;0.50;99.90;;;;;;5075888;28;20059;-80
2023/12/01 10:51:36;;;;;;;29.88;13.23;;;0.60;99.90;;;;;;5092155;28;20044;-80
2023/12/01 10:54:03;;;;;;;31.13;14.57;;;0.80;99.90;;;;;;5092637;28;20059;-81
2023/12/01 10:56:31;;;;;;;32.60;14.55;;;0.90;99.90;;;;;;5092831;28;20079;-81
2023/12/01 10:59:00;;;;;;;32.40;14.57;;;1.00;99.90;;;;;;5094079;28;20090;-80
2023/12/01 11:01:27;;;;;;;33.88;17.10;;;1.10;99.90;;;;;;5092721;28;20510;-81
2023/12/01 11:03:57;;;;;;;31.40;16.17;;;0.90;99.90;;;;;;5092819;28;20522;-81
2023/12/01 11:06:40;;;;;;;30.90;15.13;;;1.10;99.90;;;;;;5089034;28;20041;-81
2023/12/01 11:09:24;;;;;;;35.60;16.75;;;1.00;99.90;;;;;;5086866;28;20055;-81
2023/12/01 11:12:13;;;;;;;29.75;15.05;;;1.10;99.90;;;;;;5092682;28;20048;-81
2023/12/01 11:14:40;;;;;;;29.45;14.48;;;1.00;99.90;;;;;;5087610;28;20135;-82
2023/12/01 11:17:06;;;;;;;31.67;13.90;;;1.10;99.90;;;;;;5072610;28;20063;-81
2023/12/01 11:19:41;;;;;;;32.38;14.65;;;1.00;99.90;;;;;;5072076;28;20400;-82
2023/12/01 11:22:37;;;;;;;32.10;13.70;;;1.10;99.90;;;;;;5086889;28;20084;-82
2023/12/01 11:25:05;;;;;;;28.80;12.85;;;1.40;99.90;;;;;;5092578;28;20521;-82
2023/12/01 11:27:32;;;;;;;30.27;12.98;;;1.50;99.90;;;;;;5087455;28;20414;-82
2023/12/01 11:30:07;;;;;;;24.35;13.02;;;1.30;99.90;;;;;;5082564;28;20045;-82
2023/12/01 11:32:38;;;;;;;27.83;12.85;;;1.20;99.90;;;;;;5058334;28;20040;-81
2023/12/01 11:35:09;;;;;;;28.23;13.20;;;1.30;99.90;;;;;;5075220;28;20052;-82
2023/12/01 11:37:58;;;;;;;24.67;12.73;;;1.20;99.90;;;;;;5092247;28;20139;-82
2023/12/01 11:40:26;;;;;;;27.73;13.13;;;1.20;99.90;;;;;;5075681;28;20093;-81
2023/12/01 11:42:51;;;;;;;30.35;14.07;;;1.10;99.90;;;;;;5091560;28;20054;-81
2023/12/01 11:45:36;;;;;;;28.38;14.00;;;1.00;99.90;;;;;;5075305;28;20394;-81
2023/12/01 11:48:10;;;;;;;45.30;20.17;;;1.10;99.90;;;;;;5092023;28;20054;-81
2023/12/01 11:50:40;;;;;;;32.13;15.60;;;1.20;99.90;;;;;;5091972;28;20040;-80
2023/12/01 11:53:11;;;;;;;28.38;13.65;;;1.30;99.90;;;;;;5075244;28;20131;-81
2023/12/01 11:55:36;;;;;;;30.80;15.90;;;1.20;99.90;;;;;;5092633;28;20475;-81
2023/12/01 11:58:02;;;;;;;28.95;12.85;;;1.30;99.90;;;;;;5071928;28;20090;-81
2023/12/01 12:00:28;;;;;;;28.83;13.13;;;1.20;99.90;;;;;;5086356;28;20069;-81
2023/12/01 12:02:53;;;;;;;30.17;14.23;;;1.20;99.90;;;;;;5093594;28;20036;-81
2023/12/01 12:05:20;;;;;;;30.45;14.32;;;1.30;99.90;;;;;;5096107;28;20052;-81
2023/12/01 12:07:46;;;;;;;27.00;13.75;;;1.30;99.90;;;;;;5089891;28;20391;-81
2023/12/01 12:10:15;;;;;;;31.92;15.32;;;1.20;99.90;;;;;;5096344;28;20040;-81
2023/12/01 12:12:41;;;;;;;33.88;16.13;;;1.20;99.90;;;;;;5097098;28;20491;-81
2023/12/01 12:15:09;;;;;;;27.45;13.95;;;1.10;99.90;;;;;;5097341;28;20040;-81
2023/12/01 12:17:37;;;;;;;26.77;14.15;;;1.10;99.90;;;;;;5093828;28;20036;-81
2023/12/01 12:20:04;;;;;;;32.58;15.07;;;1.20;99.90;;;;;;5077075;28;20052;-80
2023/12/01 12:22:30;;;;;;;30.50;13.95;;;1.10;99.90;;;;;;5058872;28;20119;-80
2023/12/01 12:24:55;;;;;;;27.23;14.10;;;1.10;99.90;;;;;;5075319;28;20181;-81
2023/12/01 12:27:21;;;;;;;26.50;13.18;;;1.10;99.90;;;;;;5061736;28;20074;-81
2023/12/01 12:29:47;;;;;;;27.52;13.13;;;1.10;99.90;;;;;;5089385;28;20047;-82